Time;durP1;ratioP1;P1;durP2;ratioP2;P2;SDS_P1;SDS_P2;PMS_P1;PMS_P2;Temp;Humidity;BMP_temperature;BMP_pressure;BME280_temperature;BME280_humidity;BME280_pressure;Samples;Min_cycle;Max_cycle;Signal;HPM_P1;HPM_P2
2022/04/20 00:00:18;;;;;;;4.47;2.60;;;;;;;4.85;75.50;98691.87;1730164;82;21130;-68
2022/04/20 00:02:55;;;;;;;6.87;3.00;;;;;;;4.84;75.59;98692.16;1740118;82;21022;-67
2022/04/20 00:05:33;;;;;;;6.92;2.92;;;;;;;4.82;75.54;98691.66;1720838;81;21043;-68
2022/04/20 00:08:04;;;;;;;4.20;2.92;;;;;;;4.79;75.44;98693.06;1732263;82;20927;-69
2022/04/20 00:10:35;;;;;;;6.87;3.55;;;;;;;4.79;75.44;98693.06;1730294;80;20955;-69
2022/04/20 00:13:05;;;;;;;7.10;3.87;;;;;;;4.78;75.52;98700.96;1721656;82;21141;-69
2022/04/20 00:15:32;;;;;;;5.95;3.37;;;;;;;4.78;75.88;98702.32;1728332;82;20876;-68
2022/04/20 00:18:01;;;;;;;4.65;2.80;;;;;;;4.80;75.53;98700.66;1724854;82;21014;-68
2022/04/20 00:20:38;;;;;;;4.42;2.98;;;;;;;4.78;75.02;98702.32;1710588;82;20900;-68
2022/04/20 00:23:09;;;;;;;4.90;2.75;;;;;;;4.76;74.90;98701.81;1728861;82;20851;-68
2022/04/20 00:25:40;;;;;;;4.40;2.87;;;;;;;4.76;74.92;98689.58;1728903;82;22341;-68
2022/04/20 00:28:10;;;;;;;8.48;2.80;;;;;;;4.76;76.04;98696.38;1723976;82;21552;-70
2022/04/20 00:30:40;;;;;;;3.58;2.62;;;;;;;4.77;75.38;98698.54;1731573;82;20903;-70
2022/04/20 00:33:09;;;;;;;3.87;2.75;;;;;;;4.76;75.17;98696.92;1729572;82;21537;-70
2022/04/20 00:35:44;;;;;;;6.55;3.10;;;;;;;4.76;75.17;98696.92;1701012;83;21513;-70
2022/04/20 00:38:11;;;;;;;4.15;2.87;;;;;;;4.77;75.43;98690.38;1731965;82;21243;-70
2022/04/20 00:40:49;;;;;;;4.75;2.75;;;;;;;4.79;75.69;98693.06;1733137;82;21573;-70
2022/04/20 00:43:21;;;;;;;3.77;2.87;;;;;;;4.78;74.95;98690.09;1725465;82;21448;-70
2022/04/20 00:45:52;;;;;;;4.08;2.83;;;;;;;4.74;74.99;98689.06;1729478;82;21517;-70
2022/04/20 00:48:21;;;;;;;5.15;3.47;;;;;;;4.72;75.11;98692.64;1699797;83;20990;-67
2022/04/20 00:50:51;;;;;;;4.53;2.80;;;;;;;4.72;75.11;98692.64;1726781;82;21184;-67
2022/04/20 00:53:19;;;;;;;3.87;2.80;;;;;;;4.68;74.78;98693.53;1730557;82;20955;-66
2022/04/20 00:55:48;;;;;;;3.67;2.47;;;;;;;4.68;74.78;98693.53;1725793;81;21002;-68
2022/04/20 00:58:23;;;;;;;4.12;2.90;;;;;;;4.65;74.80;98702.53;1732308;82;20982;-67
2022/04/20 01:00:54;;;;;;;4.17;2.77;;;;;;;4.62;74.80;98697.69;1728963;82;20880;-67
2022/04/20 01:03:28;;;;;;;4.70;2.90;;;;;;;4.61;75.40;98701.55;1733670;82;20884;-67
2022/04/20 01:06:10;;;;;;;4.40;2.92;;;;;;;4.59;75.10;98690.71;1712733;82;21093;-67
2022/04/20 01:09:01;;;;;;;7.37;3.67;;;;;;;4.59;75.02;98705.11;1728512;82;21037;-68
2022/04/20 01:11:35;;;;;;;5.67;3.02;;;;;;;4.54;74.84;98707.91;1667561;82;21074;-67
2022/04/20 01:14:04;;;;;;;5.87;2.87;;;;;;;4.52;75.44;98716.11;1727111;82;20891;-68
2022/04/20 01:16:38;;;;;;;4.55;3.08;;;;;;;4.52;75.44;98716.11;1707166;83;41203;-67
2022/04/20 01:19:19;;;;;;;4.62;3.25;;;;;;;4.54;75.25;98725.58;1690602;83;21442;-68
2022/04/20 01:22:01;;;;;;;4.05;3.20;;;;;;;4.52;75.00;98719.63;1710222;81;21379;-68
2022/04/20 01:24:47;;;;;;;5.03;3.30;;;;;;;4.52;75.00;98719.63;1613997;87;20975;-68
2022/04/20 01:27:18;;;;;;;5.20;3.22;;;;;;;4.48;75.51;98714.53;1699718;82;20919;-69
2022/04/20 01:29:46;;;;;;;7.08;4.12;;;;;;;4.47;74.92;98710.75;1662986;81;21802;-70
2022/04/20 01:32:17;;;;;;;5.50;3.83;;;;;;;4.45;74.98;98723.27;1710398;82;20934;-69
2022/04/20 01:34:52;;;;;;;4.13;3.30;;;;;;;4.42;74.87;98727.94;1722597;82;20995;-70
2022/04/20 01:37:28;;;;;;;4.83;3.35;;;;;;;4.39;75.20;98723.09;1704932;82;21502;-69
2022/04/20 01:40:07;;;;;;;5.53;3.42;;;;;;;4.39;75.20;98723.09;1730339;82;21117;-70
2022/04/20 01:42:37;;;;;;;4.50;3.30;;;;;;;4.37;75.21;98723.94;1701994;82;21848;-69
2022/04/20 01:45:08;;;;;;;5.47;3.72;;;;;;;4.36;75.30;98729.11;1696979;83;20935;-69
2022/04/20 01:47:43;;;;;;;5.33;3.37;;;;;;;4.32;75.38;98728.09;1710385;81;20947;-69
2022/04/20 01:50:20;;;;;;;4.97;3.50;;;;;;;4.32;75.38;98728.09;1698967;83;20924;-69
2022/04/20 01:53:05;;;;;;;5.35;3.67;;;;;;;4.34;75.46;98727.80;1629170;83;20871;-68
2022/04/20 01:55:49;;;;;;;7.78;4.12;;;;;;;4.34;75.23;98719.09;1600260;89;21284;-70
2022/04/20 01:58:22;;;;;;;4.65;3.40;;;;;;;4.26;75.11;98715.13;1662824;82;20951;-70
2022/04/20 02:03:58;;;;;;;4.00;2.95;;;;;;;4.24;74.86;98717.33;1722023;82;20864;-68
2022/04/20 02:06:34;;;;;;;5.25;3.30;;;;;;;4.21;75.04;98712.48;1706765;82;21014;-68
2022/04/20 02:09:16;;;;;;;5.58;3.20;;;;;;;4.18;74.90;98713.08;1703512;82;21136;-69
2022/04/20 02:11:59;;;;;;;5.78;3.55;;;;;;;4.15;74.85;98714.21;1739710;82;20987;-69
2022/04/20 02:14:33;;;;;;;5.00;3.10;;;;;;;4.10;74.78;98699.34;1674938;83;20927;-69
2022/04/20 02:17:08;;;;;;;6.05;3.70;;;;;;;4.10;74.78;98699.34;1713909;82;21458;-69
2022/04/20 02:19:42;;;;;;;5.95;3.15;;;;;;;4.09;74.86;98706.69;1694226;83;20991;-69
2022/04/20 02:22:15;;;;;;;5.25;3.50;;;;;;;4.06;74.70;98703.20;1725894;81;21283;-69
2022/04/20 02:24:43;;;;;;;5.40;3.80;;;;;;;4.03;75.39;98703.00;1717899;82;20876;-70
2022/04/20 02:27:13;;;;;;;3.92;2.70;;;;;;;3.98;75.12;98701.97;1718416;82;21458;-70
2022/04/20 02:29:40;;;;;;;6.28;3.33;;;;;;;3.97;75.10;98707.15;1724209;82;20974;-69
2022/04/20 02:32:11;;;;;;;5.92;3.72;;;;;;;3.94;75.02;98714.52;1739115;82;20943;-69
2022/04/20 02:34:44;;;;;;;7.80;3.95;;;;;;;3.92;75.02;98709.12;1723704;82;21701;-69
2022/04/20 02:37:16;;;;;;;5.65;3.70;;;;;;;3.89;75.51;98711.88;1734255;82;20919;-69
2022/04/20 02:39:51;;;;;;;8.38;4.05;;;;;;;3.88;75.26;98714.33;1705618;83;20923;-69
2022/04/20 02:42:27;;;;;;;5.85;3.58;;;;;;;3.84;75.16;98713.30;1697235;83;20935;-67
2022/04/20 02:45:02;;;;;;;5.12;3.50;;;;;;;3.85;75.16;98718.18;1722762;82;21478;-68
2022/04/20 02:47:32;;;;;;;8.60;3.40;;;;;;;3.83;75.27;98716.30;1713837;82;20931;-68
2022/04/20 02:50:04;;;;;;;5.53;3.30;;;;;;;3.81;75.12;98715.23;1732131;82;20975;-67
2022/04/20 02:52:39;;;;;;;4.22;2.80;;;;;;;3.79;75.01;98716.08;1730607;82;20952;-67
2022/04/20 02:55:10;;;;;;;4.70;3.20;;;;;;;3.77;74.98;98720.19;1712461;81;20970;-66
2022/04/20 02:57:42;;;;;;;4.60;3.27;;;;;;;3.73;74.87;98715.88;1736340;82;20935;-66
2022/04/20 03:00:18;;;;;;;7.92;3.45;;;;;;;3.70;75.06;98721.89;1730115;82;21099;-66
2022/04/20 03:02:55;;;;;;;7.42;3.10;;;;;;;3.67;75.01;98714.88;1716188;82;21086;-66
2022/04/20 03:05:24;;;;;;;5.33;3.58;;;;;;;3.64;75.00;98718.44;1709508;82;20860;-66
2022/04/20 03:08:01;;;;;;;5.28;3.60;;;;;;;3.61;74.93;98731.77;1734338;82;20919;-67
2022/04/20 03:10:30;;;;;;;6.20;3.67;;;;;;;3.59;74.93;98740.76;1732390;81;21000;-67
2022/04/20 03:12:59;;;;;;;5.87;3.95;;;;;;;3.56;75.01;98738.63;1730213;82;21149;-67
2022/04/20 03:15:33;;;;;;;5.92;3.50;;;;;;;3.52;75.15;98739.75;1736273;80;20952;-67
2022/04/20 03:18:05;;;;;;;6.08;3.45;;;;;;;3.51;75.33;98746.27;1702996;83;20931;-68
2022/04/20 03:20:34;;;;;;;7.97;4.03;;;;;;;3.46;75.62;98750.42;1722733;82;21422;-69
2022/04/20 03:23:06;;;;;;;6.25;3.77;;;;;;;3.44;75.97;98747.73;1731009;81;20928;-68
2022/04/20 03:25:32;;;;;;;4.58;3.20;;;;;;;3.43;76.16;98750.20;1735534;82;21281;-68
2022/04/20 03:28:08;;;;;;;7.53;3.90;;;;;;;3.42;76.37;98748.03;1714392;82;20852;-69
2022/04/20 03:30:43;;;;;;;8.50;4.05;;;;;;;3.41;76.48;98747.77;1702197;82;20895;-68
2022/04/20 03:33:12;;;;;;;8.20;4.53;;;;;;;3.42;76.52;98745.87;1720106;81;20946;-68
2022/04/20 03:35:46;;;;;;;13.60;6.00;;;;;;;3.41;76.62;98748.31;1721001;82;20978;-69
2022/04/20 03:38:20;;;;;;;7.33;4.47;;;;;;;3.38;76.33;98750.25;1726532;82;21470;-69
2022/04/20 03:40:51;;;;;;;6.85;4.15;;;;;;;3.36;76.13;98752.44;1731433;82;21006;-67
2022/04/20 03:43:28;;;;;;;13.78;4.20;;;;;;;3.31;75.91;98745.16;1738449;82;20971;-67
2022/04/20 03:45:57;;;;;;;6.45;4.50;;;;;;;3.28;76.00;98744.38;1732277;82;20939;-67
2022/04/20 03:48:29;;;;;;;5.95;3.92;;;;;;;3.27;75.66;98745.48;1712380;81;21075;-68
2022/04/20 03:50:57;;;;;;;9.20;4.45;;;;;;;3.22;75.63;98745.53;1706056;82;20938;-69
2022/04/20 03:53:28;;;;;;;7.45;4.95;;;;;;;3.20;75.32;98750.43;1736467;82;20881;-69
2022/04/20 03:55:55;;;;;;;7.03;4.15;;;;;;;3.18;75.58;98746.65;1734584;81;21104;-68
2022/04/20 03:58:25;;;;;;;7.83;4.53;;;;;;;3.19;75.49;98752.33;1699610;82;20891;-69
2022/04/20 04:00:56;;;;;;;8.75;4.80;;;;;;;3.21;75.45;98754.76;1734544;82;20923;-69
2022/04/20 04:03:25;;;;;;;7.62;4.50;;;;;;;3.24;75.42;98755.00;1734008;81;21240;-68
2022/04/20 04:05:58;;;;;;;10.60;5.30;;;;;;;3.28;75.30;98750.61;1731016;82;20922;-67
2022/04/20 04:08:34;;;;;;;6.53;4.50;;;;;;;3.33;75.04;98752.47;1697121;82;20926;-69
2022/04/20 04:11:01;;;;;;;9.70;5.70;;;;;;;3.39;74.55;98755.94;1736403;81;20982;-69
2022/04/20 04:13:40;;;;;;;8.08;4.55;;;;;;;3.43;74.36;98755.62;1705638;82;21504;-70
2022/04/20 04:16:11;;;;;;;7.80;4.55;;;;;;;3.48;73.68;98754.18;1726135;82;21205;-69
2022/04/20 04:18:43;;;;;;;7.65;4.22;;;;;;;3.53;74.34;98752.22;1698536;83;21055;-71
2022/04/20 04:21:13;;;;;;;8.55;4.58;;;;;;;3.60;73.04;98746.44;1688487;82;21014;-70
2022/04/20 04:23:42;;;;;;;8.48;4.35;;;;;;;3.65;72.83;98742.31;1729394;82;21061;-70
2022/04/20 04:26:13;;;;;;;7.03;4.30;;;;;;;3.70;72.13;98740.89;1736888;82;20952;-70
2022/04/20 04:28:47;;;;;;;9.03;4.67;;;;;;;3.75;72.00;98735.41;1673815;85;21123;-69
2022/04/20 04:31:20;;;;;;;7.22;4.28;;;;;;;3.79;71.80;98736.44;1643330;85;20968;-70
2022/04/20 04:33:48;;;;;;;9.83;4.95;;;;;;;3.84;71.52;98725.52;1723806;82;21006;-68
2022/04/20 04:36:18;;;;;;;6.90;4.17;;;;;;;3.86;70.80;98731.47;1708750;82;21063;-67
2022/04/20 04:38:52;;;;;;;8.58;4.60;;;;;;;3.89;71.26;98732.78;1731747;82;21029;-70
2022/04/20 04:41:22;;;;;;;10.63;5.33;;;;;;;3.95;71.88;98732.44;1729824;82;24392;-70
2022/04/20 04:43:49;;;;;;;10.28;4.40;;;;;;;4.03;71.11;98735.05;1733378;82;20927;-70
2022/04/20 04:49:15;;;;;;;7.85;4.33;;;;;;;4.10;70.60;98738.17;1696805;83;20928;-70
2022/04/20 04:51:43;;;;;;;8.00;4.40;;;;;;;4.14;70.28;98746.55;1727443;82;21066;-67
2022/04/20 04:54:19;;;;;;;8.75;4.58;;;;;;;4.16;71.00;98742.99;1730128;82;21514;-67
2022/04/20 04:56:49;;;;;;;6.67;4.08;;;;;;;4.22;71.07;98739.91;1695608;83;20946;-67
2022/04/20 04:59:19;;;;;;;;;;;;;;;4.30;70.42;98739.80;1654726;85;21118;-68
2022/04/20 05:01:50;;;;;;;9.50;4.40;;;;;;;4.34;70.30;98734.59;1701224;83;20157;-68
2022/04/20 05:04:22;;;;;;;7.50;4.65;;;;;;;4.38;71.67;98735.06;1641325;86;20983;-68
2022/04/20 05:06:57;;;;;;;6.78;4.15;;;;;;;4.52;72.38;98737.84;1673246;83;20935;-68
2022/04/20 05:09:39;;;;;;;9.78;4.83;;;;;;;4.65;70.65;98738.42;1697258;83;20930;-68
2022/04/20 05:12:10;;;;;;;8.28;4.70;;;;;;;4.72;70.41;98737.50;1664941;84;21126;-68
2022/04/20 05:14:48;;;;;;;19.12;5.00;;;;;;;4.75;69.76;98733.38;1714895;81;20902;-69
2022/04/20 05:17:18;;;;;;;6.72;4.37;;;;;;;4.78;70.22;98732.78;1733346;82;21008;-67
2022/04/20 05:19:45;;;;;;;8.75;4.83;;;;;;;4.83;71.50;98743.03;1711150;82;21265;-67
2022/04/20 05:22:17;;;;;;;8.90;5.08;;;;;;;4.86;70.28;98743.79;1718783;82;21509;-67
2022/04/20 05:24:51;;;;;;;7.92;5.03;;;;;;;4.94;69.84;98752.63;1734194;82;21026;-66
2022/04/20 05:27:20;;;;;;;7.40;4.37;;;;;;;5.02;70.04;98759.30;1714773;81;21073;-67
2022/04/20 05:29:56;;;;;;;6.05;3.47;;;;;;;5.10;70.32;98765.98;1712296;82;21514;-70
2022/04/20 05:32:32;;;;;;;8.28;4.83;;;;;;;5.09;70.36;98767.89;1725881;82;21400;-71
2022/04/20 05:35:09;;;;;;;6.53;4.25;;;;;;;5.21;70.56;98764.11;1672255;83;21423;-70
2022/04/20 05:43:17;;;;;;;11.63;4.75;;;;;;;5.54;69.54;98768.95;1739996;82;20960;-75
2022/04/20 05:45:50;;;;;;;;;;;;;;;5.54;69.54;98768.95;1737977;82;21554;-69
2022/04/20 05:48:27;;;;;;;6.95;4.08;;;;;;;5.51;69.04;98776.36;1738145;81;20433;-76
2022/04/20 05:50:57;;;;;;;7.85;5.40;;;;;;;5.53;69.28;98777.42;1735008;82;20932;-74
2022/04/20 05:53:27;;;;;;;9.45;5.33;;;;;;;5.53;69.28;98777.42;1738245;82;20955;-70
2022/04/20 05:55:56;;;;;;;8.85;4.72;;;;;;;5.59;69.22;98785.74;1730997;82;21072;-70
2022/04/20 05:58:29;;;;;;;6.58;4.33;;;;;;;5.59;68.46;98786.55;1703111;82;21351;-73
2022/04/20 06:01:00;;;;;;;7.37;4.12;;;;;;;5.53;67.75;98791.84;1717469;82;20990;-73
2022/04/20 06:03:48;;;;;;;8.53;4.55;;;;;;;5.45;68.82;98790.36;1724115;82;20981;-73
2022/04/20 06:06:27;;;;;;;7.10;4.92;;;;;;;5.45;68.82;98790.36;1687123;82;20935;-71
2022/04/20 06:08:58;;;;;;;;;;;;;;;5.47;68.90;98792.23;1734837;81;21076;-70
2022/04/20 06:11:37;;;;;;;7.17;4.45;;;;;;;5.52;69.32;98799.75;1713054;82;20501;-71
2022/04/20 06:14:04;;;;;;;7.55;4.90;;;;;;;5.53;68.86;98799.20;1736505;82;21058;-72
2022/04/20 06:16:41;;;;;;;6.80;4.62;;;;;;;5.52;69.12;98790.22;1709236;82;21002;-72
2022/04/20 06:19:19;;;;;;;9.25;4.55;;;;;;;5.49;69.29;98795.45;1714179;82;20900;-77
2022/04/20 06:21:55;;;;;;;6.92;4.42;;;;;;;5.48;69.39;98789.77;1730130;82;21482;-86
2022/04/20 06:24:27;;;;;;;9.13;4.70;;;;;;;5.48;69.28;98789.20;1731901;82;21685;-75
2022/04/20 06:27:05;;;;;;;7.00;4.62;;;;;;;5.47;69.23;98782.15;1726389;82;21505;-86
2022/04/20 06:29:55;;;;;;;;;;;;;;;5.49;69.86;98783.21;1698401;84;21003;-76
2022/04/20 06:32:27;;;;;;;10.28;5.20;;;;;;;5.55;71.87;98782.01;1668633;85;20147;-72
2022/04/20 06:35:20;;;;;;;7.28;4.03;;;;;;;5.63;69.69;98787.56;1679138;83;20968;-78
2022/04/20 06:38:11;;;;;;;8.40;5.17;;;;;;;5.70;69.19;98788.52;1702241;83;20891;-86
2022/04/20 06:40:50;;;;;;;10.03;4.87;;;;;;;5.74;68.94;98784.64;1696522;82;21416;-86
2022/04/20 06:43:37;;;;;;;8.07;4.87;;;;;;;5.73;68.73;98784.39;1716603;82;20927;-81
2022/04/20 06:46:29;;;;;;;8.63;5.95;;;;;;;5.75;68.60;98787.06;1732013;81;20998;-89
2022/04/20 06:49:03;;;;;;;7.72;4.22;;;;;;;5.92;68.74;98795.44;1733484;82;20880;-75
2022/04/20 07:00:28;;;;;;;9.38;4.67;;;;;;;6.15;68.10;98795.53;1736182;82;20991;-75
2022/04/20 07:03:01;;;;;;;8.28;5.37;;;;;;;6.16;67.21;98797.95;1737232;82;21086;-77
2022/04/20 07:05:33;;;;;;;;;;;;;;;6.20;66.62;98799.52;1737210;82;21150;-71
2022/04/20 07:08:22;;;;;;;10.58;5.28;;;;;;;6.15;67.31;98794.97;1736797;81;20370;-70
2022/04/20 07:10:50;;;;;;;9.88;5.00;;;;;;;6.15;67.31;98787.36;1694416;83;21038;-69
2022/04/20 07:13:22;;;;;;;8.85;5.53;;;;;;;6.21;67.29;98777.96;1733721;81;20993;-79
2022/04/20 07:15:54;;;;;;;7.10;4.37;;;;;;;6.28;67.28;98772.91;1733965;82;20955;-78
2022/04/20 07:18:28;;;;;;;8.73;5.10;;;;;;;6.33;66.41;98771.98;1710411;82;20888;-87
2022/04/20 07:21:02;;;;;;;8.90;4.67;;;;;;;6.32;66.11;98771.17;1726261;80;21010;-74
2022/04/20 07:23:54;;;;;;;7.22;4.83;;;;;;;6.28;66.86;98764.17;1713340;81;20943;-79
2022/04/20 07:26:42;;;;;;;7.60;4.65;;;;;;;6.39;66.46;98760.63;1743129;82;20985;-80
2022/04/20 07:29:27;;;;;;;7.03;4.30;;;;;;;6.47;66.00;98761.83;1686264;84;20992;-79
2022/04/20 07:32:05;;;;;;;5.92;3.80;;;;;;;6.51;65.49;98760.09;1671875;84;21180;-81
2022/04/20 07:34:39;;;;;;;10.70;4.67;;;;;;;6.54;65.92;98757.56;1667597;83;20958;-76
2022/04/20 07:37:09;;;;;;;7.60;4.67;;;;;;;6.62;65.42;98745.91;1712318;82;20914;-83
2022/04/20 07:39:42;;;;;;;10.88;4.70;;;;;;;6.71;64.96;98748.71;1733423;82;20949;-78
2022/04/20 07:42:26;;;;;;;5.65;4.20;;;;;;;6.83;65.72;98760.43;1736493;82;21423;-77
2022/04/20 07:44:59;;;;;;;6.95;4.50;;;;;;;6.92;64.46;98759.37;1737981;81;21147;-88
2022/04/20 07:47:31;;;;;;;;;;;;;;;6.96;64.47;98754.08;1734790;82;20982;-82
2022/04/20 07:50:18;;;;;;;7.12;4.65;;;;;;;7.00;64.28;98754.26;1747212;81;20083;-81
2022/04/20 07:53:00;;;;;;;5.70;3.72;;;;;;;7.07;64.83;98760.89;1728630;81;21425;-76
2022/04/20 07:55:47;;;;;;;7.87;5.22;;;;;;;7.15;64.15;98758.78;1703144;83;20997;-75
2022/04/20 07:58:23;;;;;;;6.53;4.60;;;;;;;7.17;63.32;98757.10;1659731;85;21055;-77
2022/04/20 08:01:10;;;;;;;9.05;4.92;;;;;;;7.05;63.63;98759.03;1658129;86;21043;-75
2022/04/20 08:03:57;;;;;;;7.60;4.85;;;;;;;6.97;63.61;98757.05;1660196;86;21000;-87
2022/04/20 08:06:32;;;;;;;8.43;5.40;;;;;;;6.96;64.42;98753.52;1648304;86;20959;-80
2022/04/20 08:09:01;;;;;;;9.80;5.60;;;;;;;6.96;63.66;98737.70;1660128;85;20960;-76
2022/04/20 08:11:28;;;;;;;10.35;5.58;;;;;;;6.98;64.29;98734.66;1660156;86;21239;-81
2022/04/20 08:14:10;;;;;;;8.85;5.60;;;;;;;7.08;63.72;98733.84;1660089;86;20978;-74
2022/04/20 08:16:49;;;;;;;7.60;4.75;;;;;;;7.12;63.39;98725.28;1660238;85;20991;-73
2022/04/20 08:19:26;;;;;;;8.30;5.30;;;;;;;7.11;63.00;98722.86;1660225;86;20983;-75
2022/04/20 08:22:06;;;;;;;8.10;5.67;;;;;;;7.03;62.81;98718.97;1667369;84;20872;-75
2022/04/20 08:24:35;;;;;;;9.53;6.08;;;;;;;6.96;62.90;98724.06;1676237;85;20947;-74
2022/04/20 08:27:03;;;;;;;9.28;6.03;;;;;;;6.92;63.36;98721.73;1673511;84;20995;-73
2022/04/20 08:29:30;;;;;;;10.23;6.20;;;;;;;6.94;63.60;98721.64;1662137;85;21019;-83
2022/04/20 08:31:57;;;;;;;10.23;6.72;;;;;;;7.00;63.09;98720.95;1735586;82;20888;-77
2022/04/20 08:34:23;;;;;;;12.10;7.33;;;;;;;7.00;62.88;98722.88;1734628;82;21427;-87
2022/04/20 08:36:51;;;;;;;7.87;5.15;;;;;;;7.02;63.10;98731.00;1737334;82;21259;-77
2022/04/20 08:39:17;;;;;;;14.78;7.22;;;;;;;7.05;63.40;98726.84;1735212;82;20920;-84
2022/04/20 08:41:53;;;;;;;10.10;6.10;;;;;;;7.09;63.52;98735.46;1736040;82;21423;-78
2022/04/20 08:44:27;;;;;;;11.22;6.90;;;;;;;7.10;63.05;98728.88;1733651;82;21093;-77
2022/04/20 08:46:56;;;;;;;8.83;5.03;;;;;;;7.12;63.09;98740.86;1737235;81;21453;-81
2022/04/20 08:49:24;;;;;;;5.47;4.25;;;;;;;7.16;62.88;98737.75;1736897;82;21905;-76
2022/04/20 08:54:37;;;;;;;5.97;4.00;;;;;;;7.11;62.53;98744.70;1727048;82;21519;-81
2022/04/20 08:57:17;;;;;;;8.15;6.00;;;;;;;7.08;62.39;98747.50;1709239;81;21005;-77
2022/04/20 08:59:52;;;;;;;24.87;6.05;;;;;;;7.06;62.44;98750.29;1738800;82;20954;-71
2022/04/20 09:02:19;;;;;;;6.22;4.70;;;;;;;7.07;62.86;98746.44;1737345;82;20856;-72
2022/04/20 09:04:46;;;;;;;6.55;4.58;;;;;;;7.12;62.33;98743.02;1731240;81;20898;-70
2022/04/20 09:07:18;;;;;;;6.28;4.35;;;;;;;7.15;62.53;98737.50;1739788;82;21010;-72
2022/04/20 09:09:47;;;;;;;8.23;4.83;;;;;;;7.21;61.97;98734.33;1738455;81;20935;-72
2022/04/20 09:12:17;;;;;;;6.78;5.15;;;;;;;7.26;62.35;98736.92;1731334;81;20991;-70
2022/04/20 09:14:48;;;;;;;7.75;5.30;;;;;;;7.37;61.83;98732.00;1731806;82;21578;-70
2022/04/20 09:17:17;;;;;;;;;;;;;;;7.48;61.44;98729.80;1731001;82;21456;-70
2022/04/20 09:19:53;;;;;;;6.37;4.08;;;;;;;7.58;61.51;98728.13;1734870;82;20433;-67
2022/04/20 09:22:30;;;;;;;10.93;5.40;;;;;;;7.66;61.26;98736.11;1739957;81;21529;-68
2022/04/20 09:25:03;;;;;;;14.53;5.33;;;;;;;7.70;60.97;98738.45;1733192;82;21226;-73
2022/04/20 09:27:31;;;;;;;7.30;4.67;;;;;;;7.73;59.96;98734.53;1692270;83;20970;-77
2022/04/20 09:29:59;;;;;;;8.23;5.53;;;;;;;7.72;60.29;98743.04;1700256;83;21081;-74
2022/04/20 09:32:39;;;;;;;7.03;5.30;;;;;;;7.74;60.46;98742.97;1660670;84;20903;-70
2022/04/20 09:35:14;;;;;;;8.95;4.92;;;;;;;7.84;59.55;98745.97;1663272;84;21022;-69
2022/04/20 09:37:43;;;;;;;7.17;5.08;;;;;;;7.93;60.95;98735.31;1677184;83;21108;-76
2022/04/20 09:40:13;;;;;;;7.03;5.67;;;;;;;8.06;59.79;98727.30;1645562;84;21850;-72
2022/04/20 09:43:04;;;;;;;8.00;5.47;;;;;;;8.16;58.72;98737.91;1693024;83;21119;-72
2022/04/20 09:45:31;;;;;;;6.92;4.87;;;;;;;8.19;59.29;98733.17;1702783;83;21002;-75
2022/04/20 09:51:12;;;;;;;10.08;4.90;;;;;;;8.49;58.99;98732.83;1714294;82;21106;-70
2022/04/20 09:53:41;;;;;;;8.13;5.40;;;;;;;8.58;58.50;98723.50;1733247;82;21816;-70
2022/04/20 09:56:27;;;;;;;7.42;5.17;;;;;;;8.65;56.54;98725.75;1731487;82;20943;-74
2022/04/20 09:59:01;;;;;;;8.65;5.12;;;;;;;8.60;56.52;98726.72;1732228;81;20948;-71
2022/04/20 10:01:38;;;;;;;10.63;5.65;;;;;;;8.56;56.70;98724.38;1734947;81;20911;-71
2022/04/20 10:04:06;;;;;;;6.67;4.80;;;;;;;8.62;57.08;98725.59;1671670;83;20950;-74
2022/04/20 10:06:37;;;;;;;8.68;5.47;;;;;;;8.76;56.53;98735.77;1684297;84;21245;-72
2022/04/20 10:09:08;;;;;;;7.12;5.12;;;;;;;8.71;55.71;98734.57;1660636;85;20958;-73
2022/04/20 10:11:46;;;;;;;7.40;4.87;;;;;;;8.62;56.54;98740.08;1700919;83;21518;-72
2022/04/20 10:17:10;;;;;;;7.35;4.55;;;;;;;8.60;56.46;98735.48;1675552;83;21006;-72
2022/04/20 10:19:39;;;;;;;7.15;4.80;;;;;;;8.63;55.92;98741.69;1664557;84;21301;-77
2022/04/20 10:22:08;;;;;;;10.53;5.42;;;;;;;8.63;56.18;98743.62;1734621;81;21105;-69
2022/04/20 10:24:40;;;;;;;8.05;4.90;;;;;;;8.63;55.76;98740.31;1735389;82;21619;-73
2022/04/20 10:27:14;;;;;;;11.10;6.25;;;;;;;8.63;55.59;98752.63;1732464;82;20991;-77
2022/04/20 10:29:51;;;;;;;9.18;5.95;;;;;;;8.62;55.84;98750.21;1737253;82;20895;-85
2022/04/20 10:32:25;;;;;;;9.23;5.10;;;;;;;8.59;55.98;98747.00;1695396;83;20945;-75
2022/04/20 10:34:59;;;;;;;6.58;5.28;;;;;;;8.55;55.32;98748.77;1670540;84;21041;-75
2022/04/20 10:37:31;;;;;;;8.30;5.30;;;;;;;8.50;55.36;98750.85;1658073;84;21047;-72
2022/04/20 10:40:19;;;;;;;13.43;7.25;;;;;;;8.51;55.80;98747.80;1687638;83;20932;-72
2022/04/20 10:43:19;;;;;;;13.55;6.92;;;;;;;8.56;55.74;98748.20;1678041;84;20994;-71
2022/04/20 10:46:11;;;;;;;11.12;5.87;;;;;;;8.60;55.36;98748.60;1692061;83;20986;-71
2022/04/20 10:48:47;;;;;;;12.58;5.97;;;;;;;8.60;55.57;98750.53;1693622;83;21078;-70
2022/04/20 10:51:22;;;;;;;8.83;5.90;;;;;;;8.65;55.33;98759.14;1689658;84;21072;-80
2022/04/20 10:53:51;;;;;;;8.28;5.40;;;;;;;8.62;55.16;98754.31;1677211;83;20951;-66
2022/04/20 10:56:24;;;;;;;21.45;17.27;;;;;;;8.57;55.60;98746.52;1660832;84;21538;-66
2022/04/20 10:59:11;;;;;;;10.80;7.53;;;;;;;8.62;56.27;98746.11;1667174;85;20931;-66
2022/04/20 11:02:06;;;;;;;8.90;6.12;;;;;;;8.67;56.54;98745.35;1672336;84;20998;-66
2022/04/20 11:04:53;;;;;;;8.30;6.10;;;;;;;8.78;56.13;98740.36;1690947;83;20900;-68
2022/04/20 11:07:30;;;;;;;8.35;6.08;;;;;;;8.83;55.37;98747.04;1669128;84;21495;-74
2022/04/20 11:10:05;;;;;;;9.35;5.70;;;;;;;8.81;55.38;98752.84;1682782;83;20997;-75
2022/04/20 11:18:39;;;;;;;9.30;6.42;;;;;;;8.84;56.05;98744.55;1657087;85;20998;-72
2022/04/20 11:21:34;;;;;;;8.68;6.17;;;;;;;8.85;55.43;98740.67;1691731;84;21109;-81
2022/04/20 11:24:11;;;;;;;10.28;6.67;;;;;;;8.79;55.60;98743.34;1660140;85;21042;-72
2022/04/20 11:26:49;;;;;;;12.68;6.45;;;;;;;8.73;55.67;98741.89;1666679;84;21263;-75
2022/04/20 11:29:23;;;;;;;10.18;6.08;;;;;;;8.71;56.43;98749.05;1683579;83;21553;-79
2022/04/20 11:32:09;;;;;;;14.75;7.53;;;;;;;8.77;56.00;98748.33;1680618;83;21455;-86
2022/04/20 11:35:06;;;;;;;14.63;7.25;;;;;;;8.76;56.12;98748.09;1699176;83;20999;-73
2022/04/20 11:37:39;;;;;;;11.88;6.83;;;;;;;8.69;56.36;98749.94;1694133;83;21046;-65
2022/04/20 11:40:12;;;;;;;12.00;8.30;;;;;;;8.64;56.37;98751.50;1695863;83;21220;-69
2022/04/20 11:42:42;;;;;;;14.43;7.60;;;;;;;8.60;56.95;98747.80;1699869;83;20983;-71
2022/04/20 11:45:11;;;;;;;10.38;6.03;;;;;;;8.60;57.37;98750.53;1688279;83;21539;-71
2022/04/20 11:47:41;;;;;;;11.85;6.83;;;;;;;8.58;57.33;98751.42;1675773;84;21078;-71
2022/04/20 11:50:10;;;;;;;9.78;7.22;;;;;;;8.56;58.22;98743.53;1681663;84;21232;-71
2022/04/20 11:52:51;;;;;;;11.48;8.00;;;;;;;8.53;58.00;98742.00;1683713;84;20989;-71
2022/04/20 11:55:22;;;;;;;10.95;7.10;;;;;;;8.49;58.59;98741.84;1677598;84;21006;-72
2022/04/20 11:57:52;;;;;;;11.57;7.58;;;;;;;8.48;59.39;98736.69;1679998;85;20916;-69
2022/04/20 12:00:21;;;;;;;9.90;6.90;;;;;;;8.44;61.11;98738.45;1654849;85;21491;-79
2022/04/20 12:02:50;;;;;;;11.45;7.35;;;;;;;8.45;62.61;98732.67;1686186;84;21039;-77
2022/04/20 12:05:19;;;;;;;10.48;7.28;;;;;;;8.43;60.64;98729.45;1698247;84;21181;-77
2022/04/20 12:07:50;;;;;;;11.03;7.45;;;;;;;8.36;61.78;98727.75;1634285;83;21001;-75
2022/04/20 12:10:18;;;;;;;12.30;7.12;;;;;;;8.35;62.06;98725.34;1637367;85;21026;-76
2022/04/20 12:12:53;;;;;;;12.20;6.97;;;;;;;8.39;62.64;98729.84;1677170;83;21012;-73
2022/04/20 12:15:26;;;;;;;12.40;7.08;;;;;;;8.40;62.95;98730.09;1670323;84;21087;-67
2022/04/20 12:18:03;;;;;;;9.33;6.75;;;;;;;8.33;63.27;98731.13;1740975;81;20913;-77
2022/04/20 12:20:33;;;;;;;12.80;7.62;;;;;;;8.21;64.12;98728.19;1728905;81;21004;-72
2022/04/20 12:23:08;;;;;;;13.43;7.67;;;;;;;8.10;64.44;98726.32;1740881;82;21536;-74
2022/04/20 12:25:42;;;;;;;10.50;6.60;;;;;;;8.00;66.46;98724.48;1720147;81;20984;-73
2022/04/20 12:31:02;;;;;;;14.40;8.83;;;;;;;7.89;65.83;98723.41;1709165;83;21012;-76
2022/04/20 12:33:33;;;;;;;14.45;8.98;;;;;;;7.89;68.02;98713.04;1704114;83;21015;-84
2022/04/20 12:36:11;;;;;;;10.35;7.00;;;;;;;7.99;69.55;98710.57;1705617;83;20900;-72
2022/04/20 12:38:51;;;;;;;10.50;6.65;;;;;;;8.08;69.14;98707.30;1692465;82;21049;-76
2022/04/20 12:41:50;;;;;;;10.40;6.65;;;;;;;8.11;69.11;98695.69;1704478;83;21507;-75
2022/04/20 12:44:59;;;;;;;10.48;6.08;;;;;;;8.09;69.20;98708.31;1708383;83;21859;-66
2022/04/20 12:47:30;;;;;;;11.45;6.50;;;;;;;8.11;69.10;98706.06;1701292;83;21430;-67
2022/04/20 12:50:06;;;;;;;8.45;6.12;;;;;;;8.15;69.17;98704.86;1695038;83;21048;-66
2022/04/20 12:52:40;;;;;;;7.90;5.33;;;;;;;8.17;69.09;98706.71;1701845;83;20899;-66